sensor_id;sensor_type;location;lat;lon;timestamp;P1;durP1;ratioP1;P2;durP2;ratioP2
62623;SDS011;48699;0.000;0.000;2023-06-01T00:01:41;23.02;;;7.85;;
62623;SDS011;48699;0.000;0.000;2023-06-01T00:04:07;25.90;;;10.73;;
62623;SDS011;48699;0.000;0.000;2023-06-01T00:06:32;16.55;;;8.55;;
62623;SDS011;48699;0.000;0.000;2023-06-01T00:08:58;19.77;;;7.40;;
62623;SDS011;48699;0.000;0.000;2023-06-01T00:11:24;23.38;;;9.50;;
62623;SDS011;48699;0.000;0.000;2023-06-01T00:13:52;19.80;;;7.25;;
62623;SDS011;48699;0.000;0.000;2023-06-01T00:16:18;18.05;;;6.88;;
62623;SDS011;48699;0.000;0.000;2023-06-01T00:18:44;15.52;;;7.47;;
62623;SDS011;48699;0.000;0.000;2023-06-01T00:21:10;17.45;;;6.40;;
62623;SDS011;48699;0.000;0.000;2023-06-01T00:23:36;16.05;;;7.35;;
62623;SDS011;48699;0.000;0.000;2023-06-01T00:26:01;13.70;;;6.32;;
62623;SDS011;48699;0.000;0.000;2023-06-01T00:28:27;15.63;;;5.50;;
62623;SDS011;48699;0.000;0.000;2023-06-01T00:30:52;13.73;;;6.55;;
62623;SDS011;48699;0.000;0.000;2023-06-01T00:33:18;14.63;;;6.72;;
62623;SDS011;48699;0.000;0.000;2023-06-01T00:35:44;13.20;;;6.95;;
62623;SDS011;48699;0.000;0.000;2023-06-01T00:38:10;17.40;;;6.85;;
62623;SDS011;48699;0.000;0.000;2023-06-01T00:40:36;15.80;;;6.68;;
62623;SDS011;48699;0.000;0.000;2023-06-01T00:43:01;16.20;;;7.45;;
62623;SDS011;48699;0.000;0.000;2023-06-01T00:45:27;15.52;;;7.85;;
62623;SDS011;48699;0.000;0.000;2023-06-01T00:47:52;16.38;;;8.38;;
62623;SDS011;48699;0.000;0.000;2023-06-01T00:50:18;19.48;;;8.20;;
62623;SDS011;48699;0.000;0.000;2023-06-01T00:52:43;23.27;;;8.90;;
62623;SDS011;48699;0.000;0.000;2023-06-01T00:55:10;24.25;;;10.32;;
62623;SDS011;48699;0.000;0.000;2023-06-01T00:57:36;21.20;;;9.23;;
62623;SDS011;48699;0.000;0.000;2023-06-01T01:00:02;19.33;;;9.57;;
62623;SDS011;48699;0.000;0.000;2023-06-01T01:02:35;22.25;;;8.80;;
62623;SDS011;48699;0.000;0.000;2023-06-01T01:05:07;21.90;;;9.43;;
62623;SDS011;48699;0.000;0.000;2023-06-01T01:16:14;22.83;;;8.17;;
62623;SDS011;48699;0.000;0.000;2023-06-01T01:21:26;19.15;;;7.53;;
62623;SDS011;48699;0.000;0.000;2023-06-01T01:26:46;12.32;;;6.13;;
62623;SDS011;48699;0.000;0.000;2023-06-01T01:29:21;16.67;;;6.35;;
62623;SDS011;48699;0.000;0.000;2023-06-01T01:31:49;18.90;;;6.75;;
62623;SDS011;48699;0.000;0.000;2023-06-01T01:34:15;20.73;;;6.00;;
62623;SDS011;48699;0.000;0.000;2023-06-01T01:36:43;13.75;;;5.15;;
62623;SDS011;48699;0.000;0.000;2023-06-01T01:39:08;11.43;;;5.70;;
62623;SDS011;48699;0.000;0.000;2023-06-01T01:41:33;12.85;;;5.45;;
62623;SDS011;48699;0.000;0.000;2023-06-01T01:44:02;15.80;;;5.53;;
62623;SDS011;48699;0.000;0.000;2023-06-01T01:46:29;19.08;;;6.28;;
62623;SDS011;48699;0.000;0.000;2023-06-01T01:54:36;18.83;;;6.65;;
62623;SDS011;48699;0.000;0.000;2023-06-01T01:57:06;17.23;;;6.72;;
62623;SDS011;48699;0.000;0.000;2023-06-01T01:59:32;18.25;;;7.35;;
62623;SDS011;48699;0.000;0.000;2023-06-01T02:01:58;17.83;;;6.13;;
62623;SDS011;48699;0.000;0.000;2023-06-01T02:04:24;14.98;;;6.35;;
62623;SDS011;48699;0.000;0.000;2023-06-01T02:06:49;16.40;;;6.60;;
62623;SDS011;48699;0.000;0.000;2023-06-01T02:09:15;16.52;;;6.55;;
62623;SDS011;48699;0.000;0.000;2023-06-01T02:11:40;22.15;;;7.80;;
62623;SDS011;48699;0.000;0.000;2023-06-01T02:14:05;14.43;;;6.55;;
62623;SDS011;48699;0.000;0.000;2023-06-01T02:16:31;18.35;;;6.72;;
62623;SDS011;48699;0.000;0.000;2023-06-01T02:18:56;16.10;;;8.07;;
62623;SDS011;48699;0.000;0.000;2023-06-01T02:21:24;19.42;;;7.68;;
62623;SDS011;48699;0.000;0.000;2023-06-01T02:23:50;21.27;;;7.35;;
62623;SDS011;48699;0.000;0.000;2023-06-01T02:26:15;19.45;;;8.80;;
62623;SDS011;48699;0.000;0.000;2023-06-01T02:28:41;21.88;;;7.70;;
62623;SDS011;48699;0.000;0.000;2023-06-01T02:31:07;20.95;;;8.02;;
62623;SDS011;48699;0.000;0.000;2023-06-01T02:33:33;18.25;;;5.65;;
62623;SDS011;48699;0.000;0.000;2023-06-01T02:35:59;16.40;;;6.82;;
62623;SDS011;48699;0.000;0.000;2023-06-01T02:38:25;18.73;;;6.05;;
62623;SDS011;48699;0.000;0.000;2023-06-01T02:40:51;15.40;;;6.15;;
62623;SDS011;48699;0.000;0.000;2023-06-01T02:43:16;15.48;;;6.82;;
62623;SDS011;48699;0.000;0.000;2023-06-01T02:45:42;20.27;;;5.70;;
62623;SDS011;48699;0.000;0.000;2023-06-01T02:48:07;12.85;;;5.38;;
62623;SDS011;48699;0.000;0.000;2023-06-01T02:50:32;10.73;;;4.63;;
62623;SDS011;48699;0.000;0.000;2023-06-01T02:52:58;19.17;;;6.68;;
62623;SDS011;48699;0.000;0.000;2023-06-01T02:55:23;15.20;;;5.90;;
62623;SDS011;48699;0.000;0.000;2023-06-01T02:57:48;14.38;;;5.78;;
62623;SDS011;48699;0.000;0.000;2023-06-01T03:00:14;14.20;;;5.55;;
62623;SDS011;48699;0.000;0.000;2023-06-01T03:02:45;15.00;;;5.35;;
62623;SDS011;48699;0.000;0.000;2023-06-01T03:05:11;15.95;;;6.28;;
62623;SDS011;48699;0.000;0.000;2023-06-01T03:07:45;15.57;;;6.63;;
62623;SDS011;48699;0.000;0.000;2023-06-01T03:10:11;15.68;;;5.80;;
62623;SDS011;48699;0.000;0.000;2023-06-01T03:12:37;15.37;;;6.80;;
62623;SDS011;48699;0.000;0.000;2023-06-01T03:15:03;19.90;;;6.70;;
62623;SDS011;48699;0.000;0.000;2023-06-01T03:17:30;14.07;;;5.75;;
62623;SDS011;48699;0.000;0.000;2023-06-01T03:19:56;21.30;;;8.18;;
62623;SDS011;48699;0.000;0.000;2023-06-01T03:22:22;20.25;;;6.32;;
62623;SDS011;48699;0.000;0.000;2023-06-01T03:24:47;14.93;;;6.47;;
62623;SDS011;48699;0.000;0.000;2023-06-01T03:27:14;12.73;;;5.22;;
62623;SDS011;48699;0.000;0.000;2023-06-01T03:29:41;11.73;;;5.30;;
62623;SDS011;48699;0.000;0.000;2023-06-01T03:32:06;15.07;;;5.80;;
62623;SDS011;48699;0.000;0.000;2023-06-01T03:34:32;15.77;;;4.88;;
62623;SDS011;48699;0.000;0.000;2023-06-01T03:36:57;12.82;;;4.50;;
62623;SDS011;48699;0.000;0.000;2023-06-01T03:39:23;16.42;;;5.85;;
62623;SDS011;48699;0.000;0.000;2023-06-01T03:41:48;18.70;;;4.57;;
62623;SDS011;48699;0.000;0.000;2023-06-01T03:44:14;14.02;;;5.07;;
62623;SDS011;48699;0.000;0.000;2023-06-01T03:46:39;14.10;;;4.40;;
62623;SDS011;48699;0.000;0.000;2023-06-01T03:49:05;14.23;;;5.05;;
62623;SDS011;48699;0.000;0.000;2023-06-01T03:51:31;15.80;;;5.20;;
62623;SDS011;48699;0.000;0.000;2023-06-01T03:53:56;22.92;;;6.38;;
62623;SDS011;48699;0.000;0.000;2023-06-01T03:56:22;18.23;;;6.72;;
62623;SDS011;48699;0.000;0.000;2023-06-01T03:58:48;18.10;;;7.50;;
62623;SDS011;48699;0.000;0.000;2023-06-01T04:01:13;19.73;;;6.65;;
62623;SDS011;48699;0.000;0.000;2023-06-01T04:03:42;25.02;;;7.97;;
62623;SDS011;48699;0.000;0.000;2023-06-01T04:06:10;22.20;;;6.22;;
62623;SDS011;48699;0.000;0.000;2023-06-01T04:08:39;18.70;;;5.88;;
62623;SDS011;48699;0.000;0.000;2023-06-01T04:11:13;15.95;;;5.95;;
62623;SDS011;48699;0.000;0.000;2023-06-01T04:13:39;26.42;;;8.10;;
62623;SDS011;48699;0.000;0.000;2023-06-01T04:16:04;15.45;;;6.07;;
62623;SDS011;48699;0.000;0.000;2023-06-01T04:18:30;17.25;;;6.18;;
62623;SDS011;48699;0.000;0.000;2023-06-01T04:20:55;21.73;;;5.90;;
62623;SDS011;48699;0.000;0.000;2023-06-01T04:23:21;16.67;;;5.95;;
62623;SDS011;48699;0.000;0.000;2023-06-01T04:25:47;14.00;;;5.37;;
62623;SDS011;48699;0.000;0.000;2023-06-01T04:28:15;20.88;;;6.20;;
62623;SDS011;48699;0.000;0.000;2023-06-01T04:30:41;19.35;;;5.13;;
62623;SDS011;48699;0.000;0.000;2023-06-01T04:33:09;19.73;;;4.65;;
62623;SDS011;48699;0.000;0.000;2023-06-01T04:35:35;14.50;;;4.40;;
62623;SDS011;48699;0.000;0.000;2023-06-01T04:38:02;20.67;;;5.63;;
62623;SDS011;48699;0.000;0.000;2023-06-01T04:40:27;16.48;;;4.57;;
62623;SDS011;48699;0.000;0.000;2023-06-01T04:42:53;19.63;;;5.65;;
62623;SDS011;48699;0.000;0.000;2023-06-01T04:45:20;23.55;;;5.03;;
62623;SDS011;48699;0.000;0.000;2023-06-01T04:47:46;20.33;;;6.63;;
62623;SDS011;48699;0.000;0.000;2023-06-01T04:50:13;14.63;;;5.33;;
62623;SDS011;48699;0.000;0.000;2023-06-01T04:52:40;15.20;;;4.80;;
62623;SDS011;48699;0.000;0.000;2023-06-01T04:55:06;17.90;;;4.45;;
62623;SDS011;48699;0.000;0.000;2023-06-01T04:57:35;21.77;;;5.90;;
62623;SDS011;48699;0.000;0.000;2023-06-01T05:00:05;24.25;;;4.05;;
62623;SDS011;48699;0.000;0.000;2023-06-01T05:02:36;15.02;;;4.88;;
62623;SDS011;48699;0.000;0.000;2023-06-01T05:05:02;11.30;;;5.00;;
62623;SDS011;48699;0.000;0.000;2023-06-01T05:07:29;13.88;;;4.57;;
62623;SDS011;48699;0.000;0.000;2023-06-01T05:09:54;15.20;;;5.13;;
62623;SDS011;48699;0.000;0.000;2023-06-01T05:12:20;15.15;;;4.10;;
62623;SDS011;48699;0.000;0.000;2023-06-01T05:14:45;18.55;;;5.47;;
62623;SDS011;48699;0.000;0.000;2023-06-01T05:17:10;22.17;;;4.95;;
62623;SDS011;48699;0.000;0.000;2023-06-01T05:19:36;12.90;;;4.60;;
62623;SDS011;48699;0.000;0.000;2023-06-01T05:22:01;14.30;;;3.78;;
62623;SDS011;48699;0.000;0.000;2023-06-01T05:24:26;17.85;;;4.47;;
62623;SDS011;48699;0.000;0.000;2023-06-01T05:26:52;14.23;;;3.90;;
62623;SDS011;48699;0.000;0.000;2023-06-01T05:29:18;18.20;;;4.65;;
62623;SDS011;48699;0.000;0.000;2023-06-01T05:31:45;12.98;;;4.15;;
62623;SDS011;48699;0.000;0.000;2023-06-01T05:36:36;18.42;;;3.65;;
62623;SDS011;48699;0.000;0.000;2023-06-01T05:39:01;21.10;;;5.13;;
62623;SDS011;48699;0.000;0.000;2023-06-01T05:41:27;12.20;;;4.03;;
62623;SDS011;48699;0.000;0.000;2023-06-01T05:43:52;13.40;;;5.43;;
62623;SDS011;48699;0.000;0.000;2023-06-01T05:46:18;19.25;;;4.28;;
62623;SDS011;48699;0.000;0.000;2023-06-01T05:48:43;11.68;;;3.45;;
62623;SDS011;48699;0.000;0.000;2023-06-01T05:51:08;15.27;;;4.10;;
62623;SDS011;48699;0.000;0.000;2023-06-01T05:53:34;19.77;;;4.30;;
62623;SDS011;48699;0.000;0.000;2023-06-01T05:55:59;12.70;;;3.38;;
62623;SDS011;48699;0.000;0.000;2023-06-01T05:58:25;14.70;;;2.80;;
62623;SDS011;48699;0.000;0.000;2023-06-01T06:00:50;21.73;;;5.45;;
62623;SDS011;48699;0.000;0.000;2023-06-01T06:03:15;15.60;;;3.53;;
62623;SDS011;48699;0.000;0.000;2023-06-01T06:05:41;10.75;;;4.72;;
62623;SDS011;48699;0.000;0.000;2023-06-01T06:08:06;15.70;;;4.25;;
62623;SDS011;48699;0.000;0.000;2023-06-01T06:10:31;14.27;;;3.28;;
62623;SDS011;48699;0.000;0.000;2023-06-01T06:12:57;10.80;;;2.83;;
62623;SDS011;48699;0.000;0.000;2023-06-01T06:15:22;19.92;;;4.72;;
62623;SDS011;48699;0.000;0.000;2023-06-01T06:17:47;11.38;;;3.28;;
62623;SDS011;48699;0.000;0.000;2023-06-01T06:20:13;10.38;;;3.92;;
62623;SDS011;48699;0.000;0.000;2023-06-01T06:22:40;9.93;;;3.13;;
62623;SDS011;48699;0.000;0.000;2023-06-01T06:25:06;14.63;;;4.85;;
62623;SDS011;48699;0.000;0.000;2023-06-01T06:27:32;8.50;;;3.00;;
62623;SDS011;48699;0.000;0.000;2023-06-01T06:29:57;11.52;;;3.00;;
62623;SDS011;48699;0.000;0.000;2023-06-01T06:32:22;12.93;;;3.78;;
62623;SDS011;48699;0.000;0.000;2023-06-01T06:34:48;16.75;;;4.40;;
62623;SDS011;48699;0.000;0.000;2023-06-01T06:37:13;14.48;;;4.30;;
62623;SDS011;48699;0.000;0.000;2023-06-01T06:39:38;17.30;;;3.95;;
62623;SDS011;48699;0.000;0.000;2023-06-01T06:42:04;11.82;;;2.90;;
62623;SDS011;48699;0.000;0.000;2023-06-01T06:44:30;18.50;;;3.37;;
62623;SDS011;48699;0.000;0.000;2023-06-01T06:46:57;11.48;;;3.65;;
62623;SDS011;48699;0.000;0.000;2023-06-01T06:49:23;10.07;;;4.00;;
62623;SDS011;48699;0.000;0.000;2023-06-01T06:51:49;14.90;;;3.55;;
62623;SDS011;48699;0.000;0.000;2023-06-01T06:54:14;23.17;;;3.78;;
62623;SDS011;48699;0.000;0.000;2023-06-01T06:56:40;19.15;;;5.55;;
62623;SDS011;48699;0.000;0.000;2023-06-01T06:59:05;48.47;;;6.18;;
62623;SDS011;48699;0.000;0.000;2023-06-01T07:01:32;20.20;;;3.88;;
62623;SDS011;48699;0.000;0.000;2023-06-01T07:04:00;14.60;;;4.78;;
62623;SDS011;48699;0.000;0.000;2023-06-01T07:06:26;26.80;;;5.97;;
62623;SDS011;48699;0.000;0.000;2023-06-01T07:08:52;27.92;;;5.68;;
62623;SDS011;48699;0.000;0.000;2023-06-01T07:11:18;13.07;;;4.03;;
62623;SDS011;48699;0.000;0.000;2023-06-01T07:13:43;9.65;;;2.78;;
62623;SDS011;48699;0.000;0.000;2023-06-01T07:16:09;13.85;;;2.78;;
62623;SDS011;48699;0.000;0.000;2023-06-01T07:18:34;13.30;;;3.10;;
62623;SDS011;48699;0.000;0.000;2023-06-01T07:21:01;15.18;;;3.65;;
62623;SDS011;48699;0.000;0.000;2023-06-01T07:23:26;14.52;;;3.17;;
62623;SDS011;48699;0.000;0.000;2023-06-01T07:25:52;14.57;;;2.80;;
62623;SDS011;48699;0.000;0.000;2023-06-01T07:28:17;12.55;;;3.20;;
62623;SDS011;48699;0.000;0.000;2023-06-01T07:30:43;8.90;;;2.50;;
62623;SDS011;48699;0.000;0.000;2023-06-01T07:33:08;16.95;;;2.70;;
62623;SDS011;48699;0.000;0.000;2023-06-01T07:35:34;11.95;;;3.05;;
62623;SDS011;48699;0.000;0.000;2023-06-01T07:37:59;13.52;;;3.10;;
62623;SDS011;48699;0.000;0.000;2023-06-01T07:40:25;17.77;;;5.95;;
62623;SDS011;48699;0.000;0.000;2023-06-01T07:42:52;10.90;;;3.42;;
62623;SDS011;48699;0.000;0.000;2023-06-01T07:45:17;14.93;;;3.50;;
62623;SDS011;48699;0.000;0.000;2023-06-01T07:47:43;16.95;;;3.55;;
62623;SDS011;48699;0.000;0.000;2023-06-01T07:50:08;12.85;;;3.47;;
62623;SDS011;48699;0.000;0.000;2023-06-01T07:52:34;15.30;;;3.67;;
62623;SDS011;48699;0.000;0.000;2023-06-01T07:54:59;16.23;;;4.30;;
62623;SDS011;48699;0.000;0.000;2023-06-01T07:57:24;12.18;;;3.38;;
62623;SDS011;48699;0.000;0.000;2023-06-01T07:59:50;15.50;;;2.97;;
62623;SDS011;48699;0.000;0.000;2023-06-01T08:02:15;11.15;;;3.67;;
62623;SDS011;48699;0.000;0.000;2023-06-01T08:04:41;11.45;;;2.53;;
62623;SDS011;48699;0.000;0.000;2023-06-01T08:07:06;12.50;;;3.25;;
62623;SDS011;48699;0.000;0.000;2023-06-01T08:09:32;11.48;;;2.65;;
62623;SDS011;48699;0.000;0.000;2023-06-01T08:11:58;13.15;;;3.20;;
62623;SDS011;48699;0.000;0.000;2023-06-01T08:14:23;15.93;;;3.33;;
62623;SDS011;48699;0.000;0.000;2023-06-01T08:16:49;19.10;;;2.75;;
62623;SDS011;48699;0.000;0.000;2023-06-01T08:21:41;17.65;;;4.22;;
62623;SDS011;48699;0.000;0.000;2023-06-01T08:24:07;14.27;;;3.92;;
62623;SDS011;48699;0.000;0.000;2023-06-01T08:26:33;15.45;;;3.33;;
62623;SDS011;48699;0.000;0.000;2023-06-01T08:28:59;12.57;;;3.43;;
62623;SDS011;48699;0.000;0.000;2023-06-01T08:31:25;13.68;;;4.82;;
62623;SDS011;48699;0.000;0.000;2023-06-01T08:33:50;14.98;;;3.65;;
62623;SDS011;48699;0.000;0.000;2023-06-01T08:36:17;19.80;;;4.22;;
62623;SDS011;48699;0.000;0.000;2023-06-01T08:43:55;20.95;;;4.50;;
62623;SDS011;48699;0.000;0.000;2023-06-01T08:46:23;10.35;;;4.07;;
62623;SDS011;48699;0.000;0.000;2023-06-01T08:48:53;13.75;;;3.70;;
62623;SDS011;48699;0.000;0.000;2023-06-01T08:51:22;22.02;;;4.35;;
62623;SDS011;48699;0.000;0.000;2023-06-01T08:53:48;11.57;;;2.88;;
62623;SDS011;48699;0.000;0.000;2023-06-01T08:56:15;15.40;;;3.42;;
62623;SDS011;48699;0.000;0.000;2023-06-01T08:58:41;10.70;;;3.25;;
62623;SDS011;48699;0.000;0.000;2023-06-01T09:03:33;31.05;;;5.68;;
62623;SDS011;48699;0.000;0.000;2023-06-01T09:06:00;12.43;;;3.92;;
62623;SDS011;48699;0.000;0.000;2023-06-01T09:08:26;13.95;;;3.00;;
62623;SDS011;48699;0.000;0.000;2023-06-01T09:10:51;9.63;;;3.08;;
62623;SDS011;48699;0.000;0.000;2023-06-01T09:13:30;9.52;;;2.75;;
62623;SDS011;48699;0.000;0.000;2023-06-01T09:15:59;19.55;;;3.50;;
62623;SDS011;48699;0.000;0.000;2023-06-01T09:18:24;12.50;;;4.18;;
62623;SDS011;48699;0.000;0.000;2023-06-01T09:20:50;15.25;;;3.35;;
62623;SDS011;48699;0.000;0.000;2023-06-01T09:23:25;15.02;;;4.25;;
62623;SDS011;48699;0.000;0.000;2023-06-01T09:26:07;13.07;;;3.92;;
62623;SDS011;48699;0.000;0.000;2023-06-01T09:34:18;13.82;;;3.65;;
62623;SDS011;48699;0.000;0.000;2023-06-01T09:36:44;12.07;;;2.80;;
62623;SDS011;48699;0.000;0.000;2023-06-01T09:39:14;14.77;;;3.05;;
62623;SDS011;48699;0.000;0.000;2023-06-01T09:44:13;8.85;;;2.50;;
62623;SDS011;48699;0.000;0.000;2023-06-01T09:46:45;12.73;;;2.72;;
62623;SDS011;48699;0.000;0.000;2023-06-01T09:49:13;14.38;;;3.80;;
62623;SDS011;48699;0.000;0.000;2023-06-01T09:51:44;13.68;;;3.15;;
62623;SDS011;48699;0.000;0.000;2023-06-01T09:54:09;10.85;;;3.58;;
62623;SDS011;48699;0.000;0.000;2023-06-01T09:56:44;13.70;;;3.40;;
62623;SDS011;48699;0.000;0.000;2023-06-01T09:59:09;16.13;;;3.47;;
62623;SDS011;48699;0.000;0.000;2023-06-01T10:01:35;9.85;;;3.05;;
62623;SDS011;48699;0.000;0.000;2023-06-01T10:04:01;16.08;;;3.25;;
62623;SDS011;48699;0.000;0.000;2023-06-01T10:06:27;14.18;;;3.67;;
62623;SDS011;48699;0.000;0.000;2023-06-01T10:08:53;9.48;;;2.97;;
62623;SDS011;48699;0.000;0.000;2023-06-01T10:11:20;15.50;;;3.80;;
62623;SDS011;48699;0.000;0.000;2023-06-01T10:13:45;15.73;;;3.78;;
62623;SDS011;48699;0.000;0.000;2023-06-01T10:16:11;18.42;;;3.53;;
62623;SDS011;48699;0.000;0.000;2023-06-01T10:18:37;11.43;;;4.70;;
62623;SDS011;48699;0.000;0.000;2023-06-01T10:21:04;12.03;;;3.70;;
62623;SDS011;48699;0.000;0.000;2023-06-01T10:23:31;13.05;;;3.70;;
62623;SDS011;48699;0.000;0.000;2023-06-01T10:25:56;10.70;;;3.33;;
62623;SDS011;48699;0.000;0.000;2023-06-01T10:28:22;13.15;;;3.30;;
62623;SDS011;48699;0.000;0.000;2023-06-01T10:33:56;20.50;;;5.03;;
62623;SDS011;48699;0.000;0.000;2023-06-01T10:36:22;15.43;;;3.55;;
62623;SDS011;48699;0.000;0.000;2023-06-01T10:38:48;9.15;;;2.97;;
62623;SDS011;48699;0.000;0.000;2023-06-01T10:41:30;10.27;;;3.35;;
62623;SDS011;48699;0.000;0.000;2023-06-01T10:43:56;7.00;;;2.53;;
62623;SDS011;48699;0.000;0.000;2023-06-01T10:46:35;7.53;;;2.78;;
62623;SDS011;48699;0.000;0.000;2023-06-01T10:49:02;9.70;;;2.50;;
62623;SDS011;48699;0.000;0.000;2023-06-01T10:51:28;16.95;;;3.55;;
62623;SDS011;48699;0.000;0.000;2023-06-01T10:53:53;7.13;;;3.17;;
62623;SDS011;48699;0.000;0.000;2023-06-01T10:59:05;11.70;;;2.97;;
62623;SDS011;48699;0.000;0.000;2023-06-01T11:01:33;11.80;;;3.55;;
62623;SDS011;48699;0.000;0.000;2023-06-01T11:03:59;11.20;;;2.97;;
62623;SDS011;48699;0.000;0.000;2023-06-01T11:06:25;12.48;;;2.67;;
62623;SDS011;48699;0.000;0.000;2023-06-01T11:08:56;12.95;;;3.20;;
62623;SDS011;48699;0.000;0.000;2023-06-01T11:11:22;10.48;;;3.05;;
62623;SDS011;48699;0.000;0.000;2023-06-01T11:14:07;10.82;;;2.60;;
62623;SDS011;48699;0.000;0.000;2023-06-01T11:16:34;10.93;;;3.25;;
62623;SDS011;48699;0.000;0.000;2023-06-01T11:19:00;13.48;;;3.10;;
62623;SDS011;48699;0.000;0.000;2023-06-01T11:21:39;16.00;;;3.92;;
62623;SDS011;48699;0.000;0.000;2023-06-01T11:26:35;9.07;;;2.67;;
62623;SDS011;48699;0.000;0.000;2023-06-01T11:29:08;10.18;;;2.67;;
62623;SDS011;48699;0.000;0.000;2023-06-01T11:31:41;13.45;;;3.05;;
62623;SDS011;48699;0.000;0.000;2023-06-01T11:34:07;14.48;;;3.80;;
62623;SDS011;48699;0.000;0.000;2023-06-01T11:36:37;13.50;;;2.83;;
62623;SDS011;48699;0.000;0.000;2023-06-01T11:39:04;14.88;;;2.90;;
62623;SDS011;48699;0.000;0.000;2023-06-01T11:41:33;15.18;;;3.40;;
62623;SDS011;48699;0.000;0.000;2023-06-01T11:44:00;7.78;;;3.00;;
62623;SDS011;48699;0.000;0.000;2023-06-01T11:46:25;10.18;;;3.25;;
62623;SDS011;48699;0.000;0.000;2023-06-01T11:49:02;13.35;;;2.60;;
62623;SDS011;48699;0.000;0.000;2023-06-01T11:51:33;13.75;;;3.33;;
62623;SDS011;48699;0.000;0.000;2023-06-01T11:54:01;11.40;;;3.00;;
62623;SDS011;48699;0.000;0.000;2023-06-01T11:56:31;12.65;;;2.45;;
62623;SDS011;48699;0.000;0.000;2023-06-01T11:59:01;7.57;;;2.35;;
62623;SDS011;48699;0.000;0.000;2023-06-01T12:01:29;10.00;;;2.45;;
62623;SDS011;48699;0.000;0.000;2023-06-01T12:03:54;13.40;;;3.28;;
62623;SDS011;48699;0.000;0.000;2023-06-01T12:06:22;5.57;;;2.08;;
62623;SDS011;48699;0.000;0.000;2023-06-01T12:08:51;10.98;;;2.38;;
62623;SDS011;48699;0.000;0.000;2023-06-01T12:11:19;12.57;;;2.35;;
62623;SDS011;48699;0.000;0.000;2023-06-01T12:14:07;12.80;;;3.33;;
62623;SDS011;48699;0.000;0.000;2023-06-01T12:19:26;11.13;;;2.33;;
62623;SDS011;48699;0.000;0.000;2023-06-01T12:21:55;9.90;;;2.78;;
62623;SDS011;48699;0.000;0.000;2023-06-01T12:26:53;9.30;;;1.98;;
62623;SDS011;48699;0.000;0.000;2023-06-01T12:29:38;13.35;;;1.90;;
62623;SDS011;48699;0.000;0.000;2023-06-01T12:32:09;10.93;;;2.20;;
62623;SDS011;48699;0.000;0.000;2023-06-01T12:34:36;15.20;;;2.15;;
62623;SDS011;48699;0.000;0.000;2023-06-01T12:37:15;13.90;;;3.50;;
62623;SDS011;48699;0.000;0.000;2023-06-01T12:39:40;17.30;;;2.63;;
62623;SDS011;48699;0.000;0.000;2023-06-01T12:42:06;15.40;;;1.85;;
62623;SDS011;48699;0.000;0.000;2023-06-01T12:44:33;14.60;;;2.88;;
62623;SDS011;48699;0.000;0.000;2023-06-01T12:46:59;9.68;;;2.20;;
62623;SDS011;48699;0.000;0.000;2023-06-01T12:49:25;10.95;;;2.33;;
62623;SDS011;48699;0.000;0.000;2023-06-01T12:51:51;8.05;;;2.40;;
62623;SDS011;48699;0.000;0.000;2023-06-01T12:54:17;11.68;;;2.00;;
62623;SDS011;48699;0.000;0.000;2023-06-01T12:56:42;8.57;;;1.90;;
62623;SDS011;48699;0.000;0.000;2023-06-01T12:59:08;11.70;;;1.88;;
62623;SDS011;48699;0.000;0.000;2023-06-01T13:01:34;7.20;;;1.92;;
62623;SDS011;48699;0.000;0.000;2023-06-01T13:03:59;14.95;;;3.17;;
62623;SDS011;48699;0.000;0.000;2023-06-01T13:06:25;16.27;;;3.08;;
62623;SDS011;48699;0.000;0.000;2023-06-01T13:08:50;12.45;;;2.50;;
62623;SDS011;48699;0.000;0.000;2023-06-01T13:11:17;9.50;;;2.17;;
62623;SDS011;48699;0.000;0.000;2023-06-01T13:13:42;13.13;;;2.15;;
62623;SDS011;48699;0.000;0.000;2023-06-01T13:16:08;8.98;;;2.10;;
62623;SDS011;48699;0.000;0.000;2023-06-01T13:18:33;11.07;;;2.33;;
62623;SDS011;48699;0.000;0.000;2023-06-01T13:20:59;16.50;;;3.08;;
62623;SDS011;48699;0.000;0.000;2023-06-01T13:23:24;12.02;;;2.10;;
62623;SDS011;48699;0.000;0.000;2023-06-01T13:25:50;9.57;;;1.73;;
62623;SDS011;48699;0.000;0.000;2023-06-01T13:28:15;12.82;;;1.88;;
62623;SDS011;48699;0.000;0.000;2023-06-01T13:30:41;9.60;;;2.20;;
62623;SDS011;48699;0.000;0.000;2023-06-01T13:33:07;12.40;;;2.10;;
62623;SDS011;48699;0.000;0.000;2023-06-01T13:35:33;15.80;;;2.60;;
62623;SDS011;48699;0.000;0.000;2023-06-01T13:37:58;12.80;;;3.08;;
62623;SDS011;48699;0.000;0.000;2023-06-01T13:40:24;9.90;;;3.10;;
62623;SDS011;48699;0.000;0.000;2023-06-01T13:42:50;16.80;;;2.15;;
62623;SDS011;48699;0.000;0.000;2023-06-01T13:45:17;14.15;;;2.35;;
62623;SDS011;48699;0.000;0.000;2023-06-01T13:47:43;15.15;;;2.13;;
62623;SDS011;48699;0.000;0.000;2023-06-01T13:50:09;21.13;;;2.43;;
62623;SDS011;48699;0.000;0.000;2023-06-01T13:52:35;10.93;;;2.78;;
62623;SDS011;48699;0.000;0.000;2023-06-01T13:55:01;18.23;;;3.20;;
62623;SDS011;48699;0.000;0.000;2023-06-01T13:57:26;12.52;;;2.13;;
62623;SDS011;48699;0.000;0.000;2023-06-01T13:59:51;17.80;;;3.00;;
62623;SDS011;48699;0.000;0.000;2023-06-01T14:02:17;12.25;;;2.17;;
62623;SDS011;48699;0.000;0.000;2023-06-01T14:04:42;14.40;;;2.55;;
62623;SDS011;48699;0.000;0.000;2023-06-01T14:07:08;12.32;;;2.03;;
62623;SDS011;48699;0.000;0.000;2023-06-01T14:09:33;15.00;;;2.25;;
62623;SDS011;48699;0.000;0.000;2023-06-01T14:11:58;11.35;;;2.08;;
62623;SDS011;48699;0.000;0.000;2023-06-01T14:14:24;25.48;;;3.80;;
62623;SDS011;48699;0.000;0.000;2023-06-01T14:16:49;8.93;;;2.20;;
62623;SDS011;48699;0.000;0.000;2023-06-01T14:19:15;13.48;;;2.33;;
62623;SDS011;48699;0.000;0.000;2023-06-01T14:21:40;10.02;;;1.85;;
62623;SDS011;48699;0.000;0.000;2023-06-01T14:24:06;10.95;;;2.60;;
62623;SDS011;48699;0.000;0.000;2023-06-01T14:26:31;10.63;;;2.55;;
62623;SDS011;48699;0.000;0.000;2023-06-01T14:28:56;13.20;;;2.38;;
62623;SDS011;48699;0.000;0.000;2023-06-01T14:31:22;13.95;;;2.33;;
62623;SDS011;48699;0.000;0.000;2023-06-01T14:33:48;12.23;;;2.25;;
62623;SDS011;48699;0.000;0.000;2023-06-01T14:36:13;13.65;;;1.88;;
62623;SDS011;48699;0.000;0.000;2023-06-01T14:38:39;10.52;;;2.30;;
62623;SDS011;48699;0.000;0.000;2023-06-01T14:41:05;17.58;;;2.67;;
62623;SDS011;48699;0.000;0.000;2023-06-01T14:43:31;8.68;;;3.55;;
62623;SDS011;48699;0.000;0.000;2023-06-01T14:45:56;11.30;;;3.22;;
62623;SDS011;48699;0.000;0.000;2023-06-01T14:48:22;9.60;;;2.13;;
62623;SDS011;48699;0.000;0.000;2023-06-01T14:50:47;16.63;;;2.67;;
62623;SDS011;48699;0.000;0.000;2023-06-01T14:53:13;33.72;;;3.03;;
62623;SDS011;48699;0.000;0.000;2023-06-01T14:55:39;11.52;;;1.83;;
62623;SDS011;48699;0.000;0.000;2023-06-01T14:58:05;20.15;;;3.35;;
62623;SDS011;48699;0.000;0.000;2023-06-01T15:00:34;10.05;;;2.40;;
62623;SDS011;48699;0.000;0.000;2023-06-01T15:03:01;25.85;;;4.45;;
62623;SDS011;48699;0.000;0.000;2023-06-01T15:05:27;17.33;;;3.85;;
62623;SDS011;48699;0.000;0.000;2023-06-01T15:07:52;13.27;;;2.60;;
62623;SDS011;48699;0.000;0.000;2023-06-01T15:10:18;12.27;;;2.55;;
62623;SDS011;48699;0.000;0.000;2023-06-01T15:12:43;14.27;;;3.05;;
62623;SDS011;48699;0.000;0.000;2023-06-01T15:15:08;19.13;;;3.47;;
62623;SDS011;48699;0.000;0.000;2023-06-01T15:17:34;11.27;;;3.03;;
62623;SDS011;48699;0.000;0.000;2023-06-01T15:19:59;21.85;;;2.80;;
62623;SDS011;48699;0.000;0.000;2023-06-01T15:22:25;16.98;;;3.83;;
62623;SDS011;48699;0.000;0.000;2023-06-01T15:24:51;17.30;;;3.20;;
62623;SDS011;48699;0.000;0.000;2023-06-01T15:27:16;18.38;;;3.45;;
62623;SDS011;48699;0.000;0.000;2023-06-01T15:29:42;19.20;;;2.95;;
62623;SDS011;48699;0.000;0.000;2023-06-01T15:32:07;15.77;;;4.10;;
62623;SDS011;48699;0.000;0.000;2023-06-01T15:34:32;14.27;;;2.38;;
62623;SDS011;48699;0.000;0.000;2023-06-01T15:36:58;16.25;;;3.45;;
62623;SDS011;48699;0.000;0.000;2023-06-01T15:39:23;23.92;;;4.05;;